Newark, West Virginia
Current Conditions -  °F | °C
As of 11:53 AM on Saturday 22 Nov 2014 (Local Time) from KPKB Reporting Station
Overcast Overcast  
Wind Chill: 41°   Ceiling: 7000
Heat Index: 45°   Visibility: 10mi
Dew Point: 21°   Wind: 8mph
Humidity: 39%   Direction: 220°SW
Pressure: 30.31"   Gusts: NA
Location:  39.0402°N, 81.3085°W
Report Text: KPKB 221653Z 22007KT 10SM BKN070 OVC085 07/M06 A3031 RMK AO2 RAE24 SLP271 P0000 T00721061
Loading
Personal Weather Stations






























Interactive Weather Map New forecast layout! Learn more

10-Day Weather Forecast

Advertisements
Track Severe Weather on mobile